Tiempo atmosférico en la estación meteorológica de El Campillo, Huelva (415 m.)



Fecha
DESCASC
Temp. máxima en grados centígrados (hora)
DESCASC
Temp. mínima en grados centígrados (hora)
DESCASC
Temp. media en grados centígrados
DESCASC
Racha de viento máxima en m/sg (hora)
DESCASC
Velocidad máxima media en intervalos de 10 minutos(hora)
DESCASC
Precipitaciones diarias en mm
DESCASC
Precipitaciones de 00:00 a 06:00 en mm
DESCASC
Precipitaciones de 06:00 a 12:00 en mm
DESCASC
Precipitaciones de 12:00 a 18:00 en mm
DESCASC
Precipitaciones de 18:00 a 24:00 en mm
DESCASC
27-12-2019 20.8 (15:40) 14.2 (00:00) 17.5 7.78 (09:30) 5 (07:50) 0 0 0 0 0
28-12-2019 21 (15:50) 12 (00:00) 16.5 7.5 (22:30) 3.33 (22:30) 0 0 0 0 0
29-12-2019 18.1 (16:00) 10.6 (00:00) 14.4 7.78 (12:10) 4.44 (12:10) 0 0 0 0 0
08-01-2020 18.4 (16:20) 8.6 (00:00) 13.5 3.33 (13:20) 1.67 (12:30) 0 0 0 0 0
17-01-2020 16.5 (17:00) 9.9 (00:00) 13.2 7.5 (02:00) 5 (01:20) 2.2 2.2 0 0 0
07-01-2020 18.8 (15:50) 7.3 (00:00) 13 4.72 (02:40) 3.33 (02:40) 0 0 0 0 0
16-01-2020 15.9 (15:20) 9.3 (00:00) 12.6 8.89 (16:20) 5.83 (16:20) 0.2 0.2 0 0 0
01-01-2020 16.8 (16:00) 8 (00:00) 12.4 5 (11:50) 3.06 (05:10) 0 0 0 0 0
18-01-2020 14 (16:30) 9.5 (00:00) 11.8 10.56 (23:40) 5.83 (23:40) 20 0 10.8 9 0.2
06-01-2020 16 (15:50) 7.3 (00:00) 11.7 4.72 (15:20) 2.5 (08:30) 0 0 0 0 0
31-12-2019 16.5 (16:00) 6.8 (00:00) 11.7 5.83 (13:20) 2.78 (02:00) 0 0 0 0 0
09-01-2020 14.8 (16:20) 7.5 (00:00) 11.2 10 (22:20) 6.94 (22:30) 0 0 0 0 0
05-01-2020 14.6 (16:30) 7.3 (00:00) 11 5.83 (12:10) 3.06 (08:00) 0 0 0 0 0
12-01-2020 15.2 (15:30) 6.4 (00:00) 10.8 4.72 (21:20) 3.33 (21:20) 0 0 0 0 0
02-01-2020 14.6 (15:30) 6.7 (00:00) 10.7 6.11 (14:20) 3.61 (15:40) 0 0 0 0 0
04-01-2020 14.6 (15:10) 6.5 (00:00) 10.6 4.17 (15:00) 2.78 (04:30) 0 0 0 0 0
19-01-2020 12.8 (15:10) 7.5 (00:00) 10.2 15.28 (17:40) 8.89 (17:10) 0 0 0 0 0
11-01-2020 14.6 (16:00) 5.1 (00:00) 9.9 8.61 (02:50) 4.72 (02:40) 0 0 0 0 0
13-01-2020 13.8 (15:00) 5.8 (00:00) 9.8 6.39 (14:50) 3.61 (14:40) 0 0 0 0 0
15-01-2020 12.4 (14:30) 6.6 (00:00) 9.5 6.67 (14:30) 3.06 (14:30) 17.4 0 0 12.8 4.6
03-01-2020 12.1 (16:30) 6.5 (00:00) 9.3 7.22 (17:20) 4.17 (17:00) 0 0 0 0 0
25-01-2020 10.7 (17:10) 7.3 (00:00) 9 6.39 (00:40) 3.89 (00:40) 5.4 1.2 3.2 1 0
10-01-2020 12.9 (16:10) 4.9 (00:00) 8.9 7.5 (14:20) 5 (14:30) 0 0 0 0 0
24-01-2020 9.5 (13:20) 7.9 (00:00) 8.7 9.17 (16:30) 3.61 (16:30) 20 2.4 3.2 7.4 7
21-01-2020 11.5 (13:10) 5.3 (00:00) 8.4 11.67 (06:30) 7.78 (06:30) 0 0 0 0 0
14-01-2020 11.1 (12:40) 5.4 (00:00) 8.3 5.56 (12:30) 3.33 (12:30) 0 0 0 0 0
23-01-2020 8.7 (15:10) 7.3 (00:00) 8 9.17 (14:20) 3.61 (00:10) 7.8 1.4 2.6 3.8 0
22-01-2020 7.5 (18:10) 5.9 (00:00) 6.7 8.61 (23:40) 3.61 (23:50) 15.2 0 1.6 9.6 4
20-01-2020 8.2 (14:10) 5.1 (00:00) 6.6 16.94 (07:20) 10.28 (02:10) 0 0 0 0 0
30-12-2019 -- (--) -- (--) -- -- (--) -- (--) -- 0 0 0 --

Gráficas

Temp. máximas Temp. mínimas Temp. medias Precipitaciones Rachas de viento máximas Velocidades máximas media en intervalos de 10 minutos

Datos horarios

Fecha y hora oficial Temperatura (ºC) Velocidad del viento (km/h) Dirección del viento Racha (km/h) Dirección de racha Precipitación (mm) Presión (hPa) Tendencia (hPa) Humedad (%)
2020-01-25 23:00:00 7.6 0 Calma 5 Noroeste 0 -- -- 97
2020-01-25 22:00:00 8.2 3 Noroeste 6 Noroeste 0 -- -- 96
2020-01-25 21:00:00 8.6 0 Calma 5 Oeste 0 -- -- 94
2020-01-25 20:00:00 8.7 0 Calma 3 Noroeste 0 -- -- 94
2020-01-25 19:00:00 9.2 0 Calma 5 Norte 0 -- -- 93
2020-01-25 18:00:00 9.9 3 Noroeste 9 Norte 0.8 -- -- 93
2020-01-25 17:00:00 10.6 3 Noroeste 9 Sur 0.2 -- -- 90
2020-01-25 16:00:00 10.6 4 Sur 12 Sur 0 -- -- 87
2020-01-25 15:00:00 10.3 5 Sudeste 13 Sudeste 0 -- -- 91
2020-01-25 14:00:00 10.1 6 Sudeste 13 Sudeste 0 -- -- 95
2020-01-25 13:00:00 9.7 5 Este 12 Sudeste 0 -- -- 98
2020-01-25 12:00:00 9.3 5 Este 12 Este 0.2 -- -- 99
2020-01-25 11:00:00 9 4 Este 10 Este 0.2 -- -- 100
2020-01-25 10:00:00 8.2 4 Este 9 Este 0 -- -- 99
2020-01-25 09:00:00 8 4 Este 10 Este 0.2 -- -- 99
2020-01-25 08:00:00 8.1 3 Sudeste 14 Sudeste 1.4 -- -- 99
2020-01-25 07:00:00 8.1 5 Sudeste 18 Este 1.2 -- -- 99
2020-01-25 06:00:00 8.1 7 Este 14 Este 1 -- -- 99
2020-01-25 05:00:00 7.5 5 Sudeste 18 Este 0 -- -- 99
2020-01-25 04:00:00 7.6 5 Sudeste 15 Este 0 -- -- 99
2020-01-25 03:00:00 8 5 Sudeste 14 Sudeste 0 -- -- 99
2020-01-25 02:00:00 8.4 5 Sudeste 18 Sur 0.2 -- -- 99
2020-01-25 01:00:00 8.7 14 Sur 23 Sur 0 -- -- 99
2020-01-25 00:00:00 8.8 9 Sur 18 Sur 0.2 -- -- 99
2020-01-24 23:00:00 8.7 13 Sur 24 Sur 0 -- -- 98
2020-01-24 22:00:00 8.6 11 Sur 21 Sur 0.2 -- -- 98
2020-01-24 21:00:00 8.9 11 Sur 18 Sur 0.4 -- -- 98
2020-01-24 20:00:00 8.8 7 Sudeste 19 Nordeste 4.4 -- -- 98
2020-01-24 19:00:00 8.9 8 Este 26 Sudeste 1.8 -- -- 98
2020-01-24 18:00:00 9 7 Sudeste 24 Sudeste 2.2 -- -- 97
2020-01-24 17:00:00 9.2 10 Sudeste 33 Sudeste 3.4 -- -- 97
2020-01-24 16:00:00 9.3 8 Este 19 Sudeste 1.4 -- -- 97
2020-01-24 15:00:00 9.5 9 Sudeste 23 Sudeste 0.2 -- -- 97
2020-01-24 14:00:00 9.5 10 Sudeste 28 Este 0.2 -- -- 99
2020-01-24 13:00:00 9.3 10 Sudeste 23 Sudeste 0 -- -- 99
2020-01-24 12:00:00 8.9 8 Sudeste 23 Sudeste 0 -- -- 99
2020-01-24 11:00:00 8.6 8 Este 21 Este 0.6 -- -- 99
2020-01-24 10:00:00 8.5 7 Sudeste 18 Sudeste 0 -- -- 99
2020-01-24 09:00:00 8.3 7 Sudeste 17 Sudeste 1 -- -- 99
2020-01-24 08:00:00 8.3 7 Este 14 Este 0.4 -- -- 99
2020-01-24 07:00:00 8.3 3 Este 13 Nordeste 1.2 -- -- 99
2020-01-24 06:00:00 8.2 4 Este 14 Este 1.6 -- -- 99
2020-01-24 05:00:00 8.2 6 Sudeste 18 Sudeste 0 -- -- 99
2020-01-24 04:00:00 8.2 6 Sudeste 14 Sudeste 0 -- -- 99
2020-01-24 03:00:00 8.2 6 Sudeste 13 Sudeste 0.8 -- -- 99
2020-01-24 02:00:00 8.1 4 Sudeste 12 Sudeste 0 -- -- 99
2020-01-24 01:00:00 7.9 5 Sudeste 14 Sudeste 0 -- -- 99
2020-01-24 00:00:00 8.1 8 Sur 25 Este 0 -- -- 98
2020-01-23 23:00:00 8.4 10 Sudeste 23 Sudeste 0 -- -- 98
2020-01-23 22:00:00 8.6 8 Sudeste 20 Este 0 -- -- 98
2020-01-23 21:00:00 8.6 6 Sudeste 18 Sudeste 0 -- -- 98
2020-01-23 20:00:00 8.6 7 Sudeste 19 Sudeste 0 -- -- 98
2020-01-23 19:00:00 8.6 8 Sudeste 20 Sudeste 0 -- -- 98
2020-01-23 18:00:00 8.7 6 Sudeste 18 Sudeste 0.8 -- -- 97
2020-01-23 17:00:00 8.5 11 Sudeste 22 Sudeste 1.8 -- -- 96
2020-01-23 16:00:00 8.5 9 Sur 31 Sudeste 0 -- -- 96
2020-01-23 15:00:00 8.5 10 Sudeste 33 Sudeste 0.2 -- -- 98
2020-01-23 14:00:00 8.2 12 Sudeste 23 Sudeste 1 -- -- 97
2020-01-23 13:00:00 8.2 9 Sudeste 27 Sur 0 -- -- 98
2020-01-23 12:00:00 8 9 Sudeste 25 Sur 0.2 -- -- 98
2020-01-23 11:00:00 7.9 9 Sudeste 21 Sudeste 0 -- -- 98
2020-01-23 10:00:00 7.6 7 Sudeste 25 Sudeste 0 -- -- 98
2020-01-23 09:00:00 7.6 8 Sur 24 Sudeste 1 -- -- 98
2020-01-23 08:00:00 7.8 8 Sudeste 23 Sudeste 1.2 -- -- 98
2020-01-23 07:00:00 7.8 9 Sudeste 21 Sudeste 0.2 -- -- 98
2020-01-23 06:00:00 7.5 7 Sudeste 22 Sudeste 0.6 -- -- 98
2020-01-23 05:00:00 7.6 11 Sudeste 25 Sudeste 0 -- -- 98
2020-01-23 04:00:00 7.5 9 Sudeste 22 Sudeste 0.2 -- -- 98
2020-01-23 03:00:00 7.5 9 Sudeste 24 Sudeste 0.2 -- -- 98
2020-01-23 02:00:00 7.4 10 Sudeste 27 Sudeste 0 -- -- 98
2020-01-23 01:00:00 7.4 10 Sudeste 27 Sudeste 0.4 -- -- 98
2020-01-23 00:00:00 7.3 11 Sudeste 31 Sur 0 -- -- 98
2020-01-22 23:00:00 7.4 10 Sudeste 27 Sudeste 0.8 -- -- 98
2020-01-22 22:00:00 7.3 8 Sudeste 21 Sudeste 1.2 -- -- 97
2020-01-22 21:00:00 7.1 9 Sudeste 22 Este 0.4 -- -- 97
2020-01-22 20:00:00 7 7 Sudeste 20 Sudeste 0.2 -- -- 97
2020-01-22 19:00:00 7.3 10 Sudeste 28 Sudeste 1.4 -- -- 97
2020-01-22 18:00:00 7.4 6 Este 18 Sudeste 2.6 -- -- 97
2020-01-22 17:00:00 7.1 3 Este 14 Este 1.4 -- -- 97
2020-01-22 16:00:00 7 3 Este 14 Este 2.2 -- -- 97
2020-01-22 15:00:00 6.7 7 Este 13 Este 2.2 -- -- 97
2020-01-22 14:00:00 6.6 7 Este 19 Sudeste 1 -- -- 97
2020-01-22 13:00:00 6.6 6 Sudeste 18 Sudeste 0.2 -- -- 97
2020-01-22 12:00:00 6.3 7 Sudeste 18 Sur 0.6 -- -- 97
2020-01-22 11:00:00 5.9 8 Sudeste 17 Sudeste 0.2 -- -- 97
2020-01-22 10:00:00 6.1 8 Sudeste 18 Sudeste 0.2 -- -- 96
2020-01-22 09:00:00 6.2 4 Este 14 Este 0.2 -- -- 96
2020-01-22 08:00:00 6.3 4 Este 13 Este 0 -- -- 95
2020-01-22 07:00:00 6.3 5 Nordeste 12 Este 0.4 -- -- 95
2020-01-22 06:00:00 6.4 3 Este 17 Nordeste 0 -- -- 92
2020-01-22 05:00:00 6.8 9 Nordeste 19 Nordeste 0 -- -- 86
2020-01-22 04:00:00 7.3 9 Nordeste 18 Nordeste 0 -- -- 78
2020-01-22 03:00:00 7.2 7 Nordeste 13 Este 0 -- -- 76
2020-01-22 02:00:00 7.1 6 Nordeste 14 Nordeste 0 -- -- 77
2020-01-22 01:00:00 6.9 6 Nordeste 9 Nordeste 0 -- -- 78
2020-01-22 00:00:00 6.9 5 Nordeste 10 Este 0 -- -- 75
2020-01-21 23:00:00 7.2 5 Nordeste 13 Nordeste 0 -- -- 73
2020-01-21 22:00:00 7 3 Nordeste 17 Nordeste 0 -- -- 72
2020-01-21 21:00:00 7.9 6 Nordeste 21 Nordeste 0 -- -- 67
2020-01-21 20:00:00 8.2 7 Nordeste 24 Norte 0 -- -- 66
2020-01-21 19:00:00 8.4 10 Nordeste 25 Nordeste 0 -- -- 63
2020-01-21 18:00:00 8.9 12 Nordeste 26 Nordeste 0 -- -- 60
2020-01-21 17:00:00 9.2 16 Norte 25 Nordeste 0 -- -- 60
2020-01-21 16:00:00 9.3 11 Nordeste 36 Nordeste 0 -- -- 60
2020-01-21 15:00:00 9.7 20 Nordeste 32 Nordeste 0 -- -- 57
2020-01-21 14:00:00 10.4 18 Nordeste 34 Norte 0 -- -- 55
2020-01-21 13:00:00 11.1 14 Nordeste 29 Nordeste 0 -- -- 52
2020-01-21 12:00:00 9.9 19 Nordeste 30 Norte 0 -- -- 54
2020-01-21 11:00:00 8.2 11 Nordeste 28 Norte 0 -- -- 59
2020-01-21 10:00:00 6.7 10 Nordeste 21 Nordeste 0 -- -- 63
2020-01-21 09:00:00 5.3 13 Nordeste 21 Norte 0 -- -- 66
2020-01-21 08:00:00 6 12 Nordeste 27 Norte 0 -- -- 62
2020-01-21 07:00:00 6.2 17 Nordeste 42 Nordeste 0 -- -- 62
2020-01-21 06:00:00 6.4 25 Nordeste 35 Nordeste 0 -- -- 64
2020-01-21 05:00:00 6.3 15 Nordeste 26 Nordeste 0 -- -- 65
2020-01-21 04:00:00 5.5 8 Nordeste 26 Nordeste 0 -- -- 70
2020-01-21 03:00:00 6.1 11 Nordeste 23 Nordeste 0 -- -- 67
2020-01-21 02:00:00 6.9 14 Nordeste 32 Nordeste 0 -- -- 64
2020-01-21 01:00:00 7.1 17 Nordeste 39 Nordeste 0 -- -- 63
2020-01-21 00:00:00 7.1 18 Nordeste 36 Nordeste 0 -- -- 63
2020-01-20 23:00:00 6.9 17 Nordeste 42 Norte 0 -- -- 64
2020-01-20 22:00:00 7 25 Nordeste 44 Nordeste 0 -- -- 63
2020-01-20 21:00:00 6.9 24 Nordeste 43 Nordeste 0 -- -- 61
2020-01-20 20:00:00 6.9 24 Nordeste 46 Nordeste 0 -- -- 59
2020-01-20 19:00:00 7.2 24 Nordeste 48 Nordeste 0 -- -- 55
2020-01-20 18:00:00 8 20 Nordeste 44 Nordeste 0 -- -- 52
2020-01-20 17:00:00 7.3 19 Nordeste 46 Nordeste 0 -- -- 55
2020-01-20 16:00:00 8.2 25 Nordeste 46 Norte 0 -- -- 52
2020-01-20 15:00:00 7.5 24 Nordeste 50 Norte 0 -- -- 52
2020-01-20 14:00:00 7.7 23 Nordeste 50 Nordeste 0 -- -- 51
2020-01-20 13:00:00 7.9 26 Nordeste 46 Nordeste 0 -- -- 47
2020-01-20 12:00:00 7.6 22 Nordeste 44 Nordeste 0 -- -- 46
2020-01-20 11:00:00 6.8 31 Nordeste 52 Nordeste 0 -- -- 45
2020-01-20 10:00:00 5.5 28 Norte 46 Norte 0 -- -- 45
2020-01-20 09:00:00 5.2 25 Norte 51 Norte 0 -- -- 46
2020-01-20 08:00:00 5.4 25 Nordeste 61 Nordeste 0 -- -- 45
2020-01-20 07:00:00 5.6 27 Nordeste 41 Nordeste 0 -- -- 44
2020-01-20 06:00:00 5.5 18 Nordeste 41 Nordeste 0 -- -- 46
2020-01-20 05:00:00 5.7 18 Nordeste 31 Nordeste 0 -- -- 45
2020-01-20 04:00:00 5.9 16 Nordeste 45 Nordeste 0 -- -- 46
2020-01-20 03:00:00 6.2 27 Nordeste 53 Norte 0 -- -- 41
2020-01-20 02:00:00 6.9 34 Nordeste 56 Nordeste 0 -- -- 38
2020-01-20 01:00:00 7.5 28 Nordeste 50 Nordeste 0 -- -- 38
2020-01-20 00:00:00 7.5 25 Norte 42 Nordeste 0 -- -- 50
2020-01-19 23:00:00 8.5 17 Nordeste 43 Norte 0 -- -- 47
2020-01-19 22:00:00 9.4 24 Norte 41 Norte 0 -- -- 40
2020-01-19 21:00:00 9.5 21 Norte 39 Norte 0 -- -- 47
2020-01-19 20:00:00 9.9 21 Norte 32 Norte 0 -- -- 55
2020-01-19 19:00:00 10.5 25 Norte 42 Nordeste 0 -- -- 56
2020-01-19 18:00:00 11.5 25 Norte 55 Norte 0 -- -- 56
2020-01-19 17:00:00 12.1 28 Norte 44 Norte 0 -- -- 56
2020-01-19 16:00:00 12.7 23 Norte 41 Norte 0 -- -- 58
2020-01-19 15:00:00 12.7 24 Norte 36 Norte 0 -- -- 61
2020-01-19 14:00:00 12.2 22 Norte 31 Norte 0 -- -- 63
2020-01-19 13:00:00 11.6 23 Norte 33 Norte 0 -- -- 67
2020-01-19 12:00:00 10.9 21 Norte 36 Norte 0 -- -- 71
2020-01-19 11:00:00 10.1 22 Norte 37 Noroeste 0 -- -- 75
2020-01-19 10:00:00 9.2 22 Norte 30 Norte 0 -- -- 84
2020-01-19 09:00:00 8.4 24 Norte 32 Noroeste 0 -- -- 87
2020-01-19 08:00:00 8.3 13 Noroeste 21 Noroeste 0 -- -- 90
2020-01-19 07:00:00 8.5 11 Noroeste 28 Norte 0 -- -- 88
2020-01-19 06:00:00 8.3 19 Norte 31 Norte 0 -- -- 87
2020-01-19 05:00:00 8.3 22 Norte 39 Noroeste 0 -- -- 85
2020-01-19 04:00:00 8.4 22 Noroeste 41 Norte 0 -- -- 85
2020-01-19 03:00:00 9.3 27 Noroeste 38 Noroeste 0 -- -- 86
2020-01-19 02:00:00 9.5 15 Noroeste 29 Noroeste 0 -- -- 92
2020-01-19 01:00:00 10 20 Noroeste 28 Noroeste 0 -- -- 90
2020-01-19 00:00:00 10.4 18 Noroeste 38 Noroeste 0 -- -- 89
2020-01-18 23:00:00 10.8 16 Noroeste 31 Oeste 0 -- -- 97
2020-01-18 22:00:00 11.6 14 Noroeste 28 Noroeste 0 -- -- 97
2020-01-18 21:00:00 12.3 11 Oeste 23 Oeste 0 -- -- 98
2020-01-18 20:00:00 12.9 8 Oeste 19 Oeste 0 -- -- 98
2020-01-18 19:00:00 13.7 6 Oeste 14 Oeste 0.2 -- -- 98
2020-01-18 18:00:00 13.8 4 Oeste 18 Oeste 0 -- -- 98
2020-01-18 17:00:00 13.9 8 Noroeste 18 Oeste 1.2 -- -- 98
2020-01-18 16:00:00 13.3 5 Oeste 15 Sur 1 -- -- 99
2020-01-18 15:00:00 12.1 8 Sur 18 Sur 0.6 -- -- 98
2020-01-18 14:00:00 11.4 10 Sur 17 Sudoeste 2 -- -- 98
2020-01-18 13:00:00 10.8 8 Sudeste 18 Sur 4.2 -- -- 98
2020-01-18 12:00:00 10.2 10 Sur 18 Sudeste 3.4 -- -- 97
2020-01-18 11:00:00 10 8 Sudeste 17 Sudeste 3.2 -- -- 97
2020-01-18 10:00:00 9.9 7 Sudeste 16 Sur 2.8 -- -- 96
2020-01-18 09:00:00 10.2 2 Sudoeste 14 Sur 1 -- -- 95
2020-01-18 08:00:00 10.3 9 Sur 14 Sur 0.4 -- -- 93
2020-01-18 07:00:00 10.4 4 Sur 8 Sur 0 -- -- 91
2020-01-18 06:00:00 10.1 3 Sur 12 Sur 0 -- -- 88
2020-01-18 05:00:00 10.3 3 Sur 13 Sudeste 0 -- -- 84
2020-01-18 04:00:00 10.5 4 Sur 9 Sudeste 0 -- -- 84
2020-01-18 03:00:00 9.9 3 Sudeste 8 Sur 0 -- -- 84
2020-01-18 02:00:00 9.7 4 Sudeste 9 Sudeste 0 -- -- 78
2020-01-18 01:00:00 9.9 0 Calma 5 Sur 0 -- -- 83
2020-01-18 00:00:00 10.4 4 Sudeste 8 Sudeste 0 -- -- 77
2020-01-17 23:00:00 10.5 5 Sudeste 9 Sudeste 0 -- -- 86
2020-01-17 22:00:00 10.8 5 Sudeste 8 Sudeste 0 -- -- 76
2020-01-17 21:00:00 10.8 2 Sur 5 Sur 0 -- -- 88
2020-01-17 20:00:00 11.7 4 Sur 6 Sur 0 -- -- 89
2020-01-17 19:00:00 12.6 4 Sur 16 Sur 0 -- -- 84
2020-01-17 18:00:00 15.3 8 Sur 14 Sur 0 -- -- 76
2020-01-17 17:00:00 16.5 4 Sur 10 Sur 0 -- -- 69
2020-01-17 16:00:00 16.1 3 Norte 10 Norte 0 -- -- 64
2020-01-17 15:00:00 16 3 Norte 12 Noroeste 0 -- -- 62
2020-01-17 14:00:00 15.4 6 Norte 13 Norte 0 -- -- 64
2020-01-17 13:00:00 14.8 3 Norte 10 Norte 0 -- -- 64
2020-01-17 12:00:00 14.4 6 Norte 9 Norte 0 -- -- 68
2020-01-17 11:00:00 13.1 2 Nordeste 7 Nordeste 0 -- -- 90
2020-01-17 10:00:00 10.6 4 Nordeste 5 Nordeste 0 -- -- 96
2020-01-17 09:00:00 10.2 0 Calma 8 Noroeste 0 -- -- 97
2020-01-17 08:00:00 10.8 6 Norte 11 Noroeste 0 -- -- 98
2020-01-17 07:00:00 11.3 4 Noroeste 11 Oeste 0 -- -- 98
2020-01-17 06:00:00 11.4 4 Oeste 17 Oeste 0.2 -- -- 98
2020-01-17 05:00:00 11.8 9 Sudoeste 21 Sur 0.2 -- -- 98
2020-01-17 04:00:00 11.5 7 Oeste 23 Sudoeste 0.4 -- -- 97
2020-01-17 03:00:00 11.2 7 Sur 25 Sur 1.4 -- -- 96
2020-01-17 02:00:00 11.8 18 Sur 27 Sur 0 -- -- 92
2020-01-17 01:00:00 11.6 14 Sur 26 Sudoeste 0 -- -- 94
2020-01-17 00:00:00 11.4 12 Sudoeste 20 Sur 0 -- -- 95
2020-01-16 23:00:00 11.2 11 Sur 16 Sur 0 -- -- 94
2020-01-16 22:00:00 11 9 Sur 22 Sur 0 -- -- 93
2020-01-16 21:00:00 10.8 8 Sur 18 Sur 0 -- -- 88
2020-01-16 20:00:00 10.6 11 Sur 22 Sudoeste 0 -- -- 71
2020-01-16 19:00:00 11.5 10 Sur 24 Sudoeste 0 -- -- 61
2020-01-16 18:00:00 13.1 13 Sudoeste 32 Sur 0 -- -- 48
2020-01-16 17:00:00 14.8 17 Sur 32 Sur 0 -- -- 41
2020-01-16 16:00:00 15.6 19 Sur 30 Sur 0 -- -- 47
2020-01-16 15:00:00 15.7 19 Sur 30 Sudoeste 0 -- -- 41
2020-01-16 14:00:00 15.3 14 Sur 27 Sur 0 -- -- 54
2020-01-16 13:00:00 14 10 Sur 19 Sudeste 0 -- -- 76
2020-01-16 12:00:00 12.8 6 Sudeste 16 Sudeste 0 -- -- 89
2020-01-16 11:00:00 10.6 8 Sudeste 15 Este 0 -- -- 99
2020-01-16 10:00:00 9.9 5 Este 11 Sudeste 0 -- -- 99
2020-01-16 09:00:00 9.4 3 Sudeste 10 Este 0 -- -- 99
2020-01-16 08:00:00 9.6 0 Calma 10 Este 0 -- -- 99
2020-01-16 07:00:00 9.9 4 Este 10 Sudeste 0 -- -- 99
2020-01-16 06:00:00 10.1 4 Sudeste 9 Este 0 -- -- 99
2020-01-16 05:00:00 10.5 4 Sudeste 10 Este 0 -- -- 99
2020-01-16 04:00:00 10.8 4 Sudeste 13 Sur 0 -- -- 98
2020-01-16 03:00:00 11.1 5 Sur 10 Sudeste 0 -- -- 98
2020-01-16 02:00:00 11.2 4 Sudeste 9 Sudeste 0 -- -- 98
2020-01-16 01:00:00 11.2 5 Sur 14 Sur 0.2 -- -- 98
2020-01-16 00:00:00 11.3 7 Sur 14 Sur 0 -- -- 98
2020-01-15 23:00:00 11.7 9 Sur 17 Sur 0 -- -- 98
2020-01-15 22:00:00 12 10 Sur 20 Sur 0 -- -- 97
2020-01-15 21:00:00 11.8 7 Sur 13 Sur 0 -- -- 97
2020-01-15 20:00:00 11.9 5 Sudeste 16 Sur 3 -- -- 97
2020-01-15 19:00:00 11.6 7 Sur 14 Sur 1.6 -- -- 96
2020-01-15 18:00:00 10.9 8 Sudeste 19 Sudeste 9.4 -- -- 96
2020-01-15 17:00:00 10.9 9 Este 18 Este 2.6 -- -- 94
2020-01-15 16:00:00 11.1 7 Sudeste 17 Este 0.6 -- -- 93
2020-01-15 15:00:00 11.8 6 Sur 24 Sur 0.2 -- -- 91
2020-01-15 14:00:00 11.7 10 Sur 19 Sur 0 -- -- 89
2020-01-15 13:00:00 10.4 7 Sudeste 16 Sudeste 0 -- -- 91
2020-01-15 12:00:00 9.7 5 Sudeste 17 Sudeste 0 -- -- 93
2020-01-15 11:00:00 9 7 Sudeste 16 Este 0 -- -- 93
2020-01-15 10:00:00 8.4 7 Sudeste 18 Sur 0 -- -- 93
2020-01-15 09:00:00 8.2 8 Sudeste 21 Este 0 -- -- 91
2020-01-15 08:00:00 7.8 6 Sudeste 17 Sudeste 0 -- -- 91
2020-01-15 07:00:00 7.2 9 Sudeste 19 Sudeste 0 -- -- 89
2020-01-15 06:00:00 6.9 4 Sudeste 14 Sudeste 0 -- -- 87
2020-01-15 05:00:00 6.9 7 Sudeste 19 Este 0 -- -- 86
2020-01-15 04:00:00 7.2 9 Sudeste 16 Sudeste 0 -- -- 87
2020-01-15 03:00:00 7.7 5 Sudeste 17 Este 0 -- -- 88
2020-01-15 02:00:00 8 5 Sudeste 16 Sudeste 0 -- -- 87
2020-01-15 01:00:00 8.4 6 Sudeste 14 Sudeste 0 -- -- 88
2020-01-15 00:00:00 8.4 5 Sudeste 13 Sudeste 0 -- -- 87
2020-01-14 23:00:00 8.6 6 Sudeste 13 Sudeste 0 -- -- 86
2020-01-14 22:00:00 8.9 5 Sur 14 Sudeste 0 -- -- 80
2020-01-14 21:00:00 9.3 6 Sur 15 Sur 0 -- -- 78
2020-01-14 20:00:00 9.9 8 Sur 14 Sudeste 0 -- -- 77
2020-01-14 19:00:00 10.2 6 Sur 12 Sudeste 0 -- -- 72
2020-01-14 18:00:00 10.4 7 Sur 14 Sur 0 -- -- 70
2020-01-14 17:00:00 10.6 6 Sur 14 Sur 0 -- -- 67
2020-01-14 16:00:00 10.8 10 Sur 15 Sudeste 0 -- -- 64
2020-01-14 15:00:00 11.1 8 Sur 16 Sur 0 -- -- 64
2020-01-14 14:00:00 10.9 8 Sur 17 Sur 0 -- -- 61
2020-01-14 13:00:00 10.9 9 Sur 20 Sur 0 -- -- 67
2020-01-14 12:00:00 9.8 8 Sur 14 Sur 0 -- -- 73
2020-01-14 11:00:00 8.5 3 Sudeste 10 Sudeste 0 -- -- 81
2020-01-14 10:00:00 7 3 Sudeste 12 Sudeste 0 -- -- 82
2020-01-14 09:00:00 5.9 5 Sudeste 10 Sudeste 0 -- -- 82
2020-01-14 08:00:00 5.4 4 Este 12 Este 0 -- -- 84
2020-01-14 07:00:00 6.9 9 Este 11 Este 0 -- -- 79
2020-01-14 06:00:00 6.5 4 Nordeste 5 Nordeste 0 -- -- 81
2020-01-14 05:00:00 6.6 3 Nordeste 5 Nordeste 0 -- -- 79
2020-01-14 04:00:00 6.8 5 Nordeste 6 Nordeste 0 -- -- 80
2020-01-14 03:00:00 6.6 3 Nordeste 5 Nordeste 0 -- -- 81
2020-01-14 02:00:00 6.5 4 Nordeste 8 Norte 0 -- -- 86
2020-01-14 01:00:00 6.5 4 Norte 6 Norte 0 -- -- 90
2020-01-14 00:00:00 6 4 Norte 6 Norte 0 -- -- 90
2020-01-13 23:00:00 6.6 2 Norte 8 Oeste 0 -- -- 90
2020-01-13 22:00:00 5.8 2 Sudoeste 6 Sur 0 -- -- 89
2020-01-13 21:00:00 7.2 4 Sur 9 Sur 0 -- -- 83
2020-01-13 20:00:00 7.4 0 Calma 6 Sur 0 -- -- 69
2020-01-13 19:00:00 9.6 0 Calma 6 Noroeste 0 -- -- 59
2020-01-13 18:00:00 11.5 5 Noroeste 12 Noroeste 0 -- -- 54
2020-01-13 17:00:00 12.9 5 Oeste 18 Sudoeste 0 -- -- 49
2020-01-13 16:00:00 13.4 5 Noroeste 18 Sudoeste 0 -- -- 48
2020-01-13 15:00:00 13.8 6 Oeste 23 Sudoeste 0 -- -- 49
2020-01-13 14:00:00 13.2 6 Sudoeste 18 Sur 0 -- -- 50
2020-01-13 13:00:00 11.9 6 Sudoeste 17 Sudoeste 0 -- -- 59
2020-01-13 12:00:00 10.8 8 Sur 14 Sur 0 -- -- 63
2020-01-13 11:00:00 9.9 5 Sur 9 Sur 0 -- -- 66
2020-01-13 10:00:00 7.9 4 Este 10 Este 0 -- -- 66
2020-01-13 09:00:00 6.7 5 Este 11 Este 0 -- -- 67
2020-01-13 08:00:00 6.7 5 Este 12 Este 0 -- -- 68
2020-01-13 07:00:00 6.9 6 Este 10 Este 0 -- -- 67
2020-01-13 06:00:00 7.8 5 Este 9 Sudeste 0 -- -- 63
2020-01-13 05:00:00 7.6 6 Este 11 Este 0 -- -- 64
2020-01-13 04:00:00 8.2 8 Este 12 Este 0 -- -- 61
2020-01-13 03:00:00 8.1 7 Este 11 Este 0 -- -- 60
2020-01-13 02:00:00 8.5 6 Este 12 Este 0 -- -- 62
2020-01-13 01:00:00 8.3 10 Este 17 Este 0 -- -- 58
2020-01-13 00:00:00 9.1 8 Este 11 Este 0 -- -- 53
2020-01-12 23:00:00 8.4 6 Nordeste 11 Nordeste 0 -- -- 57
2020-01-12 22:00:00 8.3 9 Nordeste 17 Nordeste 0 -- -- 59
2020-01-12 21:00:00 8.5 10 Nordeste 12 Norte 0 -- -- 58
2020-01-12 20:00:00 8.9 5 Norte 10 Este 0 -- -- 56
2020-01-12 19:00:00 11.1 2 Norte 11 Oeste 0 -- -- 52
2020-01-12 18:00:00 14.3 5 Oeste 12 Oeste 0 -- -- 44
2020-01-12 17:00:00 14.8 4 Oeste 14 Sudoeste 0 -- -- 40
2020-01-12 16:00:00 14.9 5 Noroeste 13 Oeste 0 -- -- 40
2020-01-12 15:00:00 15 4 Noroeste 14 Oeste 0 -- -- 39
2020-01-12 14:00:00 14.8 5 Sudoeste 13 Oeste 0 -- -- 41
2020-01-12 13:00:00 13.7 4 Oeste 15 Sudoeste 0 -- -- 46
2020-01-12 12:00:00 13.4 4 Sudoeste 9 Sur 0 -- -- 48
2020-01-12 11:00:00 11.2 2 Nordeste 5 Este 0 -- -- 55
2020-01-12 10:00:00 8.6 0 Calma 10 Este 0 -- -- 59
2020-01-12 09:00:00 6.7 6 Este 9 Este 0 -- -- 61
2020-01-12 08:00:00 7.8 4 Este 8 Este 0 -- -- 58
2020-01-12 07:00:00 8.5 5 Este 11 Este 0 -- -- 55
2020-01-12 06:00:00 8.7 8 Este 12 Este 0 -- -- 54
2020-01-12 05:00:00 8.6 8 Este 10 Este 0 -- -- 55
2020-01-12 04:00:00 9 5 Este 8 Este 0 -- -- 54
2020-01-12 03:00:00 8.4 5 Este 7 Nordeste 0 -- -- 57
2020-01-12 02:00:00 8.3 4 Nordeste 9 Norte 0 -- -- 63
2020-01-12 01:00:00 7.8 5 Norte 9 Norte 0 -- -- 64
2020-01-12 00:00:00 8.1 5 Norte 9 Norte 0 -- -- 62
2020-01-11 23:00:00 8.1 5 Norte 7 Nordeste 0 -- -- 60
2020-01-11 22:00:00 8.7 3 Norte 4 Norte 0 -- -- 57
2020-01-11 21:00:00 8.4 2 Norte 4 Norte 0 -- -- 58
2020-01-11 20:00:00 8.2 2 Sur 5 Sur 0 -- -- 58
2020-01-11 19:00:00 10.8 4 Sur 8 Sudeste 0 -- -- 49
2020-01-11 18:00:00 13.7 2 Sudeste 10 Este 0 -- -- 39
2020-01-11 17:00:00 14 7 Este 13 Nordeste 0 -- -- 38
2020-01-11 16:00:00 14.6 5 Este 17 Sudeste 0 -- -- 35
2020-01-11 15:00:00 14.1 5 Este 15 Este 0 -- -- 39
2020-01-11 14:00:00 13.7 6 Sudeste 18 Este 0 -- -- 40
2020-01-11 13:00:00 12.5 9 Este 21 Este 0 -- -- 43
2020-01-11 12:00:00 11.4 10 Este 22 Este 0 -- -- 47
2020-01-11 11:00:00 10 8 Este 21 Este 0 -- -- 50
2020-01-11 10:00:00 7.4 5 Nordeste 10 Este 0 -- -- 57
2020-01-11 09:00:00 5.1 3 Norte 12 Norte 0 -- -- 65
2020-01-11 08:00:00 6.2 7 Norte 20 Norte 0 -- -- 60
2020-01-11 07:00:00 7.1 12 Nordeste 20 Nordeste 0 -- -- 57
2020-01-11 06:00:00 7.5 9 Nordeste 21 Nordeste 0 -- -- 55
2020-01-11 05:00:00 7.8 12 Nordeste 24 Nordeste 0 -- -- 54
2020-01-11 04:00:00 8.2 14 Nordeste 24 Nordeste 0 -- -- 53
2020-01-11 03:00:00 8.8 16 Nordeste 31 Nordeste 0 -- -- 50
2020-01-11 02:00:00 8.8 14 Nordeste 27 Nordeste 0 -- -- 51
2020-01-11 01:00:00 8.6 14 Nordeste 22 Nordeste 0 -- -- 54
2020-01-11 00:00:00 6.6 8 Norte 17 Norte 0 -- -- 69
2020-01-10 23:00:00 7.4 8 Norte 16 Nordeste 0 -- -- 68
2020-01-10 22:00:00 6.9 2 Norte 8 Norte 0 -- -- 73
2020-01-10 21:00:00 8.4 4 Norte 16 Norte 0 -- -- 69
2020-01-10 20:00:00 9.1 12 Norte 18 Norte 0 -- -- 68
2020-01-10 19:00:00 10 8 Nordeste 17 Nordeste 0 -- -- 65
2020-01-10 18:00:00 12 6 Nordeste 16 Nordeste 0 -- -- 59
2020-01-10 17:00:00 12.8 6 Este 17 Nordeste 0 -- -- 50
2020-01-10 16:00:00 12.8 9 Nordeste 19 Norte 0 -- -- 50
2020-01-10 15:00:00 12.2 9 Nordeste 27 Norte 0 -- -- 54
2020-01-10 14:00:00 11.8 14 Norte 25 Norte 0 -- -- 57
2020-01-10 13:00:00 10.6 8 Norte 22 Norte 0 -- -- 59
2020-01-10 12:00:00 9.4 6 Noroeste 16 Norte 0 -- -- 63
2020-01-10 11:00:00 7.9 10 Norte 18 Norte 0 -- -- 70
2020-01-10 10:00:00 5.6 3 Norte 6 Norte 0 -- -- 91
2020-01-10 09:00:00 5.1 6 Norte 15 Norte 0 -- -- 89
2020-01-10 08:00:00 5.1 6 Norte 9 Norte 0 -- -- 91
2020-01-10 07:00:00 5.6 4 Norte 18 Norte 0 -- -- 90
2020-01-10 06:00:00 6 5 Norte 15 Norte 0 -- -- 88
2020-01-10 05:00:00 6.9 9 Norte 19 Norte 0 -- -- 89
2020-01-10 04:00:00 8.2 17 Norte 21 Noroeste 0 -- -- 87
2020-01-10 03:00:00 9.1 8 Noroeste 19 Noroeste 0 -- -- 95
2020-01-10 02:00:00 9.1 9 Noroeste 19 Noroeste 0 -- -- 94
2020-01-10 01:00:00 9.6 6 Norte 18 Norte 0 -- -- 92
2020-01-10 00:00:00 9.5 11 Norte 21 Norte 0 -- -- 88
2020-01-09 23:00:00 9.5 20 Norte 36 Norte 0 -- -- 90
2020-01-09 22:00:00 9.7 23 Norte 35 Norte 0 -- -- 85
2020-01-09 21:00:00 8.8 14 Norte 20 Norte 0 -- -- 82
2020-01-09 20:00:00 10 3 Norte 8 Oeste 0 -- -- 79
2020-01-09 19:00:00 11.7 4 Oeste 9 Sudoeste 0 -- -- 74
2020-01-09 18:00:00 13.9 4 Oeste 13 Oeste 0 -- -- 68
2020-01-09 17:00:00 14.8 6 Sudoeste 14 Oeste 0 -- -- 63
2020-01-09 16:00:00 14.5 5 Nordeste 13 Norte 0 -- -- 61
2020-01-09 15:00:00 14 5 Oeste 12 Oeste 0 -- -- 69
2020-01-09 14:00:00 12.4 2 Norte 13 Sur 0 -- -- 76
2020-01-09 13:00:00 11.8 3 Sudoeste 14 Sudeste 0 -- -- 82
2020-01-09 12:00:00 11.1 4 Sur 14 Sur 0 -- -- 82
2020-01-09 11:00:00 8.9 4 Sudeste 9 Sur 0 -- -- 91
2020-01-09 10:00:00 8.3 5 Sur 13 Sur 0 -- -- 95
2020-01-09 09:00:00 8.2 3 Sur 8 Sur 0 -- -- 96
2020-01-09 08:00:00 7.9 2 Sur 9 Sur 0 -- -- 96
2020-01-09 07:00:00 7.8 2 Sudoeste 15 Sudeste 0 -- -- 94
2020-01-09 06:00:00 7.6 6 Sudeste 15 Sudeste 0 -- -- 87
2020-01-09 05:00:00 8.1 4 Sudeste 12 Este 0 -- -- 69
2020-01-09 04:00:00 9.1 7 Este 13 Este 0 -- -- 67
2020-01-09 03:00:00 9.8 5 Sudeste 15 Sudeste 0 -- -- 66
2020-01-09 02:00:00 9.9 6 Sudeste 12 Este 0 -- -- 68
2020-01-09 01:00:00 11.3 4 Sudeste 15 Este 0 -- -- 66
2020-01-09 00:00:00 9.2 2 Sudeste 5 Sudeste 0 -- -- 72
2020-01-08 23:00:00 10.4 2 Sudeste 7 Norte 0 -- -- 65
2020-01-08 22:00:00 11.3 4 Nordeste 9 Norte 0 -- -- 63
2020-01-08 21:00:00 11.6 4 Norte 6 Nordeste 0 -- -- 60
2020-01-08 20:00:00 12.2 3 Norte 6 Oeste 0 -- -- 63
2020-01-08 19:00:00 14.3 4 Noroeste 6 Noroeste 0 -- -- 55
2020-01-08 18:00:00 17.3 3 Oeste 7 Oeste 0 -- -- 46
2020-01-08 17:00:00 18.2 4 Oeste 9 Noroeste 0 -- -- 43
2020-01-08 16:00:00 18.2 4 Oeste 10 Oeste 0 -- -- 37
2020-01-08 15:00:00 18 4 Oeste 9 Sudoeste 0 -- -- 37
2020-01-08 14:00:00 17.1 5 Oeste 12 Oeste 0 -- -- 41
2020-01-08 13:00:00 15.7 5 Noroeste 10 Oeste 0 -- -- 48
2020-01-08 12:00:00 14.5 5 Noroeste 8 Noroeste 0 -- -- 48
2020-01-08 11:00:00 13.3 0 Calma 5 Oeste 0 -- -- 50
2020-01-08 10:00:00 10.6 0 Calma 4 Sur 0 -- -- 41
2020-01-08 09:00:00 8.8 0 Calma 4 Sur 0 -- -- 46
2020-01-08 08:00:00 9.8 2 Sur 4 Sur 0 -- -- 42
2020-01-08 07:00:00 9.4 0 Calma 2 Nordeste 0 -- -- 45
2020-01-08 06:00:00 10.7 2 Nordeste 4 Norte 0 -- -- 49
2020-01-08 05:00:00 10.9 3 Nordeste 4 Nordeste 0 -- -- 50
2020-01-08 04:00:00 9.6 2 Sur 2 Sur 0 -- -- 57
2020-01-08 03:00:00 9.9 2 Sur 2 Sudoeste 0 -- -- 64
2020-01-08 02:00:00 10 2 Norte 4 Noroeste 0 -- -- 69
2020-01-08 01:00:00 10 2 Norte 3 Noroeste 0 -- -- 71
2020-01-08 00:00:00 10.2 2 Nordeste 7 Sudeste 0 -- -- 68
2020-01-07 23:00:00 11.1 0 Calma 9 Este 0 -- -- 68
2020-01-07 22:00:00 10.6 0 Calma 3 Sudeste 0 -- -- 70
2020-01-07 21:00:00 11 3 Sur 4 Sudeste 0 -- -- 69
2020-01-07 20:00:00 12.3 0 Calma 4 Norte 0 -- -- 63
2020-01-07 19:00:00 14.2 2 Norte 7 Oeste 0 -- -- 54
2020-01-07 18:00:00 17.4 3 Sudoeste 8 Oeste 0 -- -- 43
2020-01-07 17:00:00 18.4 4 Oeste 8 Sudoeste 0 -- -- 40
2020-01-07 16:00:00 18.8 3 Oeste 11 Oeste 0 -- -- 35
2020-01-07 15:00:00 18.1 0 Calma 6 Norte 0 -- -- 38
2020-01-07 14:00:00 16.7 4 Nordeste 11 Nordeste 0 -- -- 40
2020-01-07 13:00:00 15.6 5 Este 12 Sudeste 0 -- -- 45
2020-01-07 12:00:00 14.7 5 Nordeste 10 Este 0 -- -- 47
2020-01-07 11:00:00 13.1 2 Sudeste 8 Este 0 -- -- 55
2020-01-07 10:00:00 10 0 Calma 5 Nordeste 0 -- -- 55
2020-01-07 09:00:00 7.8 4 Nordeste 5 Nordeste 0 -- -- 65
2020-01-07 08:00:00 7.6 0 Calma 5 Nordeste 0 -- -- 64
2020-01-07 07:00:00 9.6 4 Nordeste 7 Este 0 -- -- 57
2020-01-07 06:00:00 9.7 3 Este 8 Este 0 -- -- 60
2020-01-07 05:00:00 10.3 8 Este 12 Este 0 -- -- 54
2020-01-07 04:00:00 10.1 10 Este 17 Este 0 -- -- 57
2020-01-07 03:00:00 10.1 8 Este 17 Este 0 -- -- 62
2020-01-07 02:00:00 10.2 7 Este 14 Este 0 -- -- 67
2020-01-07 01:00:00 10.3 8 Este 11 Este 0 -- -- 71
2020-01-07 00:00:00 9.1 8 Nordeste 10 Nordeste 0 -- -- 79
2020-01-06 23:00:00 8.5 5 Norte 8 Nordeste 0 -- -- 86
2020-01-06 22:00:00 9.4 0 Calma 4 Norte 0 -- -- 82
2020-01-06 21:00:00 8.9 0 Calma 8 Sur 0 -- -- 84
2020-01-06 20:00:00 9.9 5 Sur 6 Sur 0 -- -- 80
2020-01-06 19:00:00 11.3 4 Sur 10 Sur 0 -- -- 73
2020-01-06 18:00:00 14.8 5 Sur 10 Sur 0 -- -- 61
2020-01-06 17:00:00 16 6 Sur 10 Sur 0 -- -- 48
2020-01-06 16:00:00 15.9 3 Sudeste 17 Nordeste 0 -- -- 50
2020-01-06 15:00:00 15.6 4 Sur 13 Sudeste 0 -- -- 53
2020-01-06 14:00:00 14.4 5 Este 13 Este 0 -- -- 58
2020-01-06 13:00:00 13.3 4 Este 12 Sudeste 0 -- -- 63
2020-01-06 12:00:00 12.3 3 Este 11 Este 0 -- -- 66
2020-01-06 11:00:00 10.6 4 Nordeste 8 Norte 0 -- -- 76
2020-01-06 10:00:00 8.2 5 Nordeste 8 Nordeste 0 -- -- 81